Aeroporto :







RITROVATECI SU...

 
LOGIN :

Iscrizione | Disclaimer

   EN    FR    IT 

 









Sommario :    VFR   VFR Marginale   IFR   IFR Intensivo   IFR Molto Intensivo
Visibilità : 
Base nubi : 
>= 8 km
>= 3000ft
5 / 8 km
1000 / 3000 ft
1500m / 5 km
500 / 1000 ft
800 / 1500m
200 / 500 ft
< 800m
< 200 ft
Simboli :   Temporali  Nebbia  Neve Forte  Precipitazioni Forti  Vento > 20 kt






- Altitudine del aeroporto : 1808 ft
- Codice IATA : YWK


CYWK - Wabush

ULTIMO METAR :
  • 140835Z AUTO 24009G16KT 9SM SCT015 M15/M19 A2995 RMK SLP191

METARs OBSOLETI :
  • 140800Z AUTO 26011G19KT 9SM BKN017 M15/M18 A2994 RMK SLP187
  • 140700Z AUTO 26009G17KT 9SM BKN019 M14/M18 A2991 RMK SLP177
  • 140646Z AUTO 26013G19KT 9SM BKN019 M14/M18 A2991 RMK SLP176
  • 140612Z AUTO 26011KT 9SM SCT020 OVC027 M13/M17 A2989 RMK SLP171
  • 140600Z AUTO 27011G17KT 9SM OVC020 M13/M17 A2989 RMK SLP168

TAF TAF CYWK
Valido dal 14 a 08 ore il 14 a 20 ore UTC


140738Z 1408/1420 28010G20KT P6SM SCT020 SCT130
TEMPO 1408/1418 BKN020
BECMG 1412/1414 23015G25KT
FM141800 21018G28KT P6SM FEW030 BKN080
TEMPO 1418/1420 5SM -SN BKN030 RMK FCST BASED ON AUTO OBS. NXT FCST BY 141400Z



MetMap, La meteo Aeronautica in un colpo d'occhio ! - Copyright ORBIFLY Dicembre 2007 - Disclaimer

ORBIFLY MET'MAP TEAM :

Programmazione e sviluppo : Alexandra Zaïnal
Concezione e sviluppo : Baudouin d'Aumeries
Co-Programmazione e sviluppo : Marc-Olivier Méhu
Supporto tecnico e logistico : Manuel Goepfert
Aiuto per la traduzione : Arnaldo La Scala

Contatto : metmap@orbifly.com




FONTI E CREDITI :

   NOAA